Time,TemperatureF,DewpointF,PressureIn,WindDirection,WindDirectionDegrees,WindSpeedMPH,WindSpeedGustMPH,Humidity,HourlyPrecipIn,Conditions,Clouds,dailyrainin,SoftwareType,DateUTC
2013-05-06 00:00:00,49.5,49.2,29.68,ESE,112,0.0,-999.0,99,-99.99,,,0.00,Acu-Link.com,2013-05-06 04:00:00,
2013-05-06 00:15:00,49.1,48.8,29.66,NNE,22,0.0,-999.0,99,-99.99,,,0.07,Acu-Link.com,2013-05-06 04:15:00,
2013-05-06 00:30:00,48.7,48.4,29.64,NW,315,0.0,-999.0,99,-99.99,,,0.11,Acu-Link.com,2013-05-06 04:30:00,
2013-05-06 00:45:00,48.2,47.9,29.63,West,270,0.0,-999.0,99,-99.99,,,0.15,Acu-Link.com,2013-05-06 04:45:00,
2013-05-06 01:01:00,47.8,47.5,29.63,East,90,0.0,-999.0,99,-99.99,,,0.15,Acu-Link.com,2013-05-06 05:01:00,
2013-05-06 01:16:00,47.5,47.2,29.63,WNW,292,0.0,-999.0,99,-99.99,,,0.15,Acu-Link.com,2013-05-06 05:16:00,
2013-05-06 01:31:00,47.1,46.8,29.63,SW,225,0.0,-999.0,99,-99.99,,,0.15,Acu-Link.com,2013-05-06 05:31:00,
2013-05-06 01:46:00,47.1,46.8,29.64,South,180,0.0,-999.0,99,-99.99,,,0.15,Acu-Link.com,2013-05-06 05:46:00,
2013-05-06 02:01:00,47.3,47.0,29.64,NNE,22,0.0,-999.0,99,-99.99,,,0.15,Acu-Link.com,2013-05-06 06:01:00,
2013-05-06 02:16:00,47.3,47.0,29.64,West,270,0.0,-999.0,99,-99.99,,,0.15,Acu-Link.com,2013-05-06 06:16:00,
2013-05-06 02:31:00,47.3,47.0,29.64,West,270,0.0,-999.0,99,-99.99,,,0.15,Acu-Link.com,2013-05-06 06:31:00,
2013-05-06 02:46:00,47.3,47.0,29.63,SE,135,0.0,-999.0,99,-99.99,,,0.15,Acu-Link.com,2013-05-06 06:46:00,
2013-05-06 03:01:00,47.3,47.0,29.63,SW,225,0.0,-999.0,99,-99.99,,,0.15,Acu-Link.com,2013-05-06 07:01:00,
2013-05-06 03:17:00,47.5,47.2,29.64,NE,45,0.0,-999.0,99,-99.99,,,0.15,Acu-Link.com,2013-05-06 07:17:00,
2013-05-06 03:32:00,47.3,47.0,29.63,East,90,0.0,-999.0,99,-99.99,,,0.15,Acu-Link.com,2013-05-06 07:32:00,
2013-05-06 03:47:00,47.1,46.8,29.63,NNE,22,0.0,-999.0,99,-99.99,,,0.15,Acu-Link.com,2013-05-06 07:47:00,
2013-05-06 04:02:00,46.8,46.5,29.63,SW,225,0.0,-999.0,99,-99.99,,,0.15,Acu-Link.com,2013-05-06 08:02:00,
2013-05-06 04:17:00,46.6,46.3,29.63,ENE,67,0.0,-999.0,99,-99.99,,,0.15,Acu-Link.com,2013-05-06 08:17:00,
2013-05-06 04:32:00,45.7,45.4,29.62,SSW,202,0.0,-999.0,99,-99.99,,,0.15,Acu-Link.com,2013-05-06 08:32:00,
2013-05-06 04:47:00,44.8,44.5,29.63,South,180,0.0,-999.0,99,-99.99,,,0.15,Acu-Link.com,2013-05-06 08:47:00,
2013-05-06 05:03:00,43.7,43.4,29.63,ESE,112,0.0,-999.0,99,-99.99,,,0.15,Acu-Link.com,2013-05-06 09:03:00,
2013-05-06 05:18:00,42.6,42.3,29.63,East,90,0.0,-999.0,99,-99.99,,,0.15,Acu-Link.com,2013-05-06 09:18:00,
2013-05-06 05:33:00,42.4,42.1,29.63,South,180,0.0,-999.0,99,-99.99,,,0.15,Acu-Link.com,2013-05-06 09:33:00,
2013-05-06 05:48:00,42.6,42.3,29.63,South,180,0.0,-999.0,99,-99.99,,,0.15,Acu-Link.com,2013-05-06 09:48:00,
2013-05-06 06:03:00,42.1,41.8,29.64,West,270,0.0,-999.0,99,-99.99,,,0.15,Acu-Link.com,2013-05-06 10:03:00,
2013-05-06 06:18:00,42.4,42.1,29.64,West,270,0.0,-999.0,99,-99.99,,,0.15,Acu-Link.com,2013-05-06 10:18:00,
2013-05-06 06:33:00,43.2,42.9,29.65,SSE,157,0.0,-999.0,99,-99.99,,,0.15,Acu-Link.com,2013-05-06 10:33:00,
2013-05-06 06:48:00,43.3,43.0,29.65,SSE,157,0.0,-999.0,99,-99.99,,,0.15,Acu-Link.com,2013-05-06 10:48:00,
2013-05-06 07:03:00,43.7,43.4,29.66,NNE,22,0.0,-999.0,99,-99.99,,,0.16,Acu-Link.com,2013-05-06 11:03:00,
2013-05-06 07:19:00,44.2,43.9,29.66,ESE,112,0.0,-999.0,99,-99.99,,,0.17,Acu-Link.com,2013-05-06 11:19:00,
2013-05-06 07:34:00,44.8,44.5,29.67,NNW,337,0.0,-999.0,99,-99.99,,,0.17,Acu-Link.com,2013-05-06 11:34:00,
2013-05-06 07:49:00,45.9,45.6,29.67,ENE,67,0.0,-999.0,99,-99.99,,,0.17,Acu-Link.com,2013-05-06 11:49:00,
2013-05-06 08:04:00,46.0,45.7,29.68,East,90,0.0,-999.0,99,-99.99,,,0.17,Acu-Link.com,2013-05-06 12:04:00,
2013-05-06 08:19:00,46.9,46.6,29.68,ENE,67,0.0,-999.0,99,-99.99,,,0.17,Acu-Link.com,2013-05-06 12:19:00,
2013-05-06 08:34:00,48.0,47.7,29.68,SW,225,0.0,-999.0,99,-99.99,,,0.17,Acu-Link.com,2013-05-06 12:34:00,
2013-05-06 08:49:00,49.3,49.0,29.68,SE,135,0.0,-999.0,99,-99.99,,,0.17,Acu-Link.com,2013-05-06 12:49:00,
2013-05-06 09:04:00,51.8,51.0,29.69,West,270,0.0,-999.0,97,-99.99,,,0.17,Acu-Link.com,2013-05-06 13:04:00,
2013-05-06 09:19:00,53.4,50.8,29.69,SSE,157,2.7,-999.0,91,-99.99,,,0.17,Acu-Link.com,2013-05-06 13:19:00,
2013-05-06 09:35:00,54.1,51.2,29.69,ESE,112,1.7,-999.0,90,-99.99,,,0.17,Acu-Link.com,2013-05-06 13:35:00,
2013-05-06 09:50:00,54.0,51.4,29.70,SE,135,0.0,-999.0,91,-99.99,,,0.17,Acu-Link.com,2013-05-06 13:50:00,
2013-05-06 10:05:00,53.2,50.3,29.70,WNW,292,0.0,-999.0,90,-99.99,,,0.17,Acu-Link.com,2013-05-06 14:05:00,
2013-05-06 10:20:00,55.0,51.8,29.70,ESE,112,0.0,-999.0,89,-99.99,,,0.17,Acu-Link.com,2013-05-06 14:20:00,
2013-05-06 10:35:00,55.4,51.6,29.71,South,180,0.0,-999.0,87,-99.99,,,0.17,Acu-Link.com,2013-05-06 14:35:00,
2013-05-06 10:50:00,54.5,51.0,29.70,SW,225,1.1,-999.0,88,-99.99,,,0.17,Acu-Link.com,2013-05-06 14:50:00,
2013-05-06 11:05:00,54.0,51.1,29.71,West,270,2.2,-999.0,90,-99.99,,,0.18,Acu-Link.com,2013-05-06 15:05:00,
2013-05-06 11:20:00,54.0,51.4,29.71,South,180,0.0,-999.0,91,-99.99,,,0.18,Acu-Link.com,2013-05-06 15:20:00,
2013-05-06 11:35:00,54.5,51.6,29.70,South,180,1.7,-999.0,90,-99.99,,,0.18,Acu-Link.com,2013-05-06 15:35:00,
2013-05-06 11:51:00,55.6,51.8,29.70,West,270,4.2,-999.0,87,-99.99,,,0.19,Acu-Link.com,2013-05-06 15:51:00,
2013-05-06 12:06:00,53.1,51.1,29.70,North,0,2.2,-999.0,93,-99.99,,,0.19,Acu-Link.com,2013-05-06 16:06:00,
2013-05-06 12:21:00,55.2,52.6,29.70,South,180,2.7,-999.0,91,-99.99,,,0.20,Acu-Link.com,2013-05-06 16:21:00,
2013-05-06 12:36:00,54.5,50.7,29.70,SSW,202,3.7,-999.0,87,-99.99,,,0.20,Acu-Link.com,2013-05-06 16:36:00,
2013-05-06 12:51:00,54.5,50.7,29.69,NW,315,2.2,-999.0,87,-99.99,,,0.20,Acu-Link.com,2013-05-06 16:51:00,
2013-05-06 13:06:00,57.0,52.2,29.70,ESE,112,3.7,-999.0,84,-99.99,,,0.20,Acu-Link.com,2013-05-06 17:06:00,
2013-05-06 13:21:00,57.0,50.2,29.69,ESE,112,2.2,-999.0,78,-99.99,,,0.20,Acu-Link.com,2013-05-06 17:21:00,
2013-05-06 13:36:00,59.5,51.2,29.68,ESE,112,2.7,-999.0,74,-99.99,,,0.20,Acu-Link.com,2013-05-06 17:36:00,
2013-05-06 13:51:00,58.6,50.7,29.69,SSW,202,5.3,-999.0,75,-99.99,,,0.20,Acu-Link.com,2013-05-06 17:51:00,
2013-05-06 14:07:00,57.7,48.7,29.70,SSW,202,4.7,-999.0,72,-99.99,,,0.20,Acu-Link.com,2013-05-06 18:07:00,
2013-05-06 14:22:00,56.7,49.2,29.69,SSE,157,4.2,-999.0,76,-99.99,,,0.20,Acu-Link.com,2013-05-06 18:22:00,
2013-05-06 14:37:00,57.0,50.6,29.69,SSE,157,1.1,-999.0,79,-99.99,,,0.20,Acu-Link.com,2013-05-06 18:37:00,
2013-05-06 14:52:00,57.6,50.1,29.69,West,270,5.3,-999.0,76,-99.99,,,0.20,Acu-Link.com,2013-05-06 18:52:00,
2013-05-06 15:07:00,56.5,48.3,29.69,SE,135,3.7,-999.0,74,-99.99,,,0.20,Acu-Link.com,2013-05-06 19:07:00,
2013-05-06 15:22:00,55.2,48.5,29.69,WNW,292,4.2,-999.0,78,-99.99,,,0.20,Acu-Link.com,2013-05-06 19:22:00,
2013-05-06 15:38:00,54.1,49.7,29.69,SW,225,2.2,-999.0,85,-99.99,,,0.20,Acu-Link.com,2013-05-06 19:38:00,
2013-05-06 15:53:00,54.9,51.1,29.69,SW,225,2.2,-999.0,87,-99.99,,,0.20,Acu-Link.com,2013-05-06 19:53:00,
2013-05-06 16:08:00,55.2,51.1,29.69,South,180,2.7,-999.0,86,-99.99,,,0.20,Acu-Link.com,2013-05-06 20:08:00,
2013-05-06 16:23:00,55.6,51.5,29.69,NE,45,4.2,-999.0,86,-99.99,,,0.20,Acu-Link.com,2013-05-06 20:23:00,
2013-05-06 16:38:00,55.0,50.9,29.69,East,90,2.7,-999.0,86,-99.99,,,0.20,Acu-Link.com,2013-05-06 20:38:00,
2013-05-06 16:53:00,56.8,51.7,29.68,SW,225,2.2,-999.0,83,-99.99,,,0.20,Acu-Link.com,2013-05-06 20:53:00,
2013-05-06 17:08:00,55.0,49.9,29.69,South,180,2.2,-999.0,83,-99.99,,,0.20,Acu-Link.com,2013-05-06 21:08:00,
2013-05-06 17:23:00,55.9,51.5,29.70,SSW,202,4.2,-999.0,85,-99.99,,,0.20,Acu-Link.com,2013-05-06 21:23:00,
2013-05-06 17:38:00,56.7,50.6,29.69,SW,225,3.7,-999.0,80,-99.99,,,0.20,Acu-Link.com,2013-05-06 21:38:00,
2013-05-06 17:54:00,58.5,50.6,29.69,SW,225,4.7,-999.0,75,-99.99,,,0.20,Acu-Link.com,2013-05-06 21:54:00,
2013-05-06 18:09:00,57.6,50.8,29.69,ESE,112,3.2,-999.0,78,-99.99,,,0.20,Acu-Link.com,2013-05-06 22:09:00,
2013-05-06 18:24:00,57.4,49.9,29.69,SSW,202,2.7,-999.0,76,-99.99,,,0.20,Acu-Link.com,2013-05-06 22:24:00,
2013-05-06 18:39:00,56.5,50.1,29.69,South,180,4.2,-999.0,79,-99.99,,,0.20,Acu-Link.com,2013-05-06 22:39:00,
2013-05-06 18:54:00,57.2,50.4,29.69,SE,135,3.7,-999.0,78,-99.99,,,0.20,Acu-Link.com,2013-05-06 22:54:00,
2013-05-06 19:09:00,56.1,50.7,29.69,ENE,67,0.0,-999.0,82,-99.99,,,0.20,Acu-Link.com,2013-05-06 23:09:00,
2013-05-06 19:24:00,55.2,50.8,29.70,SSE,157,1.1,-999.0,85,-99.99,,,0.20,Acu-Link.com,2013-05-06 23:24:00,
2013-05-06 19:39:00,54.9,50.8,29.70,SW,225,0.0,-999.0,86,-99.99,,,0.20,Acu-Link.com,2013-05-06 23:39:00,
2013-05-06 19:54:00,54.0,51.1,29.70,ESE,112,0.0,-999.0,90,-99.99,,,0.20,Acu-Link.com,2013-05-06 23:54:00,
2013-05-06 20:10:00,53.6,51.3,29.70,ESE,112,0.0,-999.0,92,-99.99,,,0.20,Acu-Link.com,2013-05-07 00:10:00,
2013-05-06 20:25:00,52.9,51.5,29.70,East,90,0.0,-999.0,95,-99.99,,,0.20,Acu-Link.com,2013-05-07 00:25:00,
2013-05-06 20:40:00,52.3,51.5,29.71,ESE,112,0.0,-999.0,97,-99.99,,,0.20,Acu-Link.com,2013-05-07 00:40:00,
2013-05-06 20:55:00,52.0,51.7,29.72,East,90,0.0,-999.0,99,-99.99,,,0.20,Acu-Link.com,2013-05-07 00:55:00,
2013-05-06 21:10:00,51.8,51.5,29.72,West,270,0.0,-999.0,99,-99.99,,,0.20,Acu-Link.com,2013-05-07 01:10:00,
2013-05-06 21:25:00,51.6,51.3,29.72,West,270,0.0,-999.0,99,-99.99,,,0.20,Acu-Link.com,2013-05-07 01:25:00,
2013-05-06 21:40:00,51.4,51.1,29.72,WSW,247,0.0,-999.0,99,-99.99,,,0.20,Acu-Link.com,2013-05-07 01:40:00,
2013-05-06 21:55:00,51.3,51.0,29.73,NW,315,0.0,-999.0,99,-99.99,,,0.20,Acu-Link.com,2013-05-07 01:55:00,
2013-05-06 22:10:00,51.1,50.8,29.73,ESE,112,1.7,-999.0,99,-99.99,,,0.20,Acu-Link.com,2013-05-07 02:10:00,
2013-05-06 22:25:00,51.1,50.8,29.74,South,180,0.0,-999.0,99,-99.99,,,0.20,Acu-Link.com,2013-05-07 02:25:00,
2013-05-06 22:41:00,50.5,50.2,29.74,East,90,0.0,-999.0,99,-99.99,,,0.20,Acu-Link.com,2013-05-07 02:41:00,
2013-05-06 22:56:00,50.4,50.1,29.74,NNE,22,0.0,-999.0,99,-99.99,,,0.20,Acu-Link.com,2013-05-07 02:56:00,
2013-05-06 23:11:00,50.0,49.7,29.74,ESE,112,0.0,-999.0,99,-99.99,,,0.20,Acu-Link.com,2013-05-07 03:11:00,
2013-05-06 23:26:00,49.6,49.3,29.74,WNW,292,0.0,-999.0,99,-99.99,,,0.20,Acu-Link.com,2013-05-07 03:26:00,
2013-05-06 23:41:00,49.6,49.3,29.74,WNW,292,0.0,-999.0,99,-99.99,,,0.20,Acu-Link.com,2013-05-07 03:41:00,
2013-05-06 23:56:00,49.8,49.5,29.74,NE,45,0.0,-999.0,99,-99.99,,,0.20,Acu-Link.com,2013-05-07 03:56:00,